Time;durP1;ratioP1;P1;durP2;ratioP2;P2;SDS_P1;SDS_P2;PMS_P1;PMS_P2;Temp;Humidity;BMP_temperature;BMP_pressure;BME280_temperature;BME280_humidity;BME280_pressure;Samples;Min_cycle;Max_cycle;Signal;HPM_P1;HPM_P2
2023/12/22 00:00:16;;;;;;;0.63;0.32;;;;;;;10.78;58.84;94113.75;6192689;23;20022;-87
2023/12/22 00:02:42;;;;;;;1.95;0.40;;;;;;;10.72;58.88;94106.78;6217191;23;20083;-85
2023/12/22 00:05:08;;;;;;;0.32;0.30;;;;;;;10.53;59.91;94104.03;6167402;23;20019;-86
2023/12/22 00:07:34;;;;;;;1.02;0.40;;;;;;;10.35;60.15;94088.28;6217170;23;20008;-86
2023/12/22 00:15:00;;;;;;;1.40;0.45;;;;;;;10.47;60.38;94099.66;6239082;22;20016;-85
2023/12/22 00:17:25;;;;;;;0.70;0.50;;;;;;;10.45;60.14;94085.25;6217686;23;20038;-85
2023/12/22 00:19:51;;;;;;;1.52;0.40;;;;;;;10.68;59.49;94097.78;6192405;23;20012;-86
2023/12/22 00:22:20;;;;;;;1.10;0.57;;;;;;;10.57;59.54;94099.22;6192119;23;20008;-86
2023/12/22 00:27:11;;;;;;;0.68;0.40;;;;;;;10.59;59.02;94057.44;6187343;23;20012;-86
2023/12/22 00:29:37;;;;;;;1.17;0.50;;;;;;;10.45;59.57;94067.88;6217467;23;20042;-86
2023/12/22 00:32:02;;;;;;;2.38;0.50;;;;;;;10.74;58.52;94070.97;6192058;23;20015;-86
2023/12/22 00:34:28;;;;;;;1.25;0.57;;;;;;;10.88;58.42;94076.91;6218066;23;20071;-86
2023/12/22 00:36:53;;;;;;;2.00;0.40;;;;;;;10.74;58.32;94076.16;6192451;23;20008;-86
2023/12/22 00:41:44;;;;;;;1.60;0.60;;;;;;;10.71;57.94;94064.34;6229805;22;20028;-86
2023/12/22 00:44:09;;;;;;;1.95;0.38;;;;;;;10.69;58.41;94062.97;6217065;23;20043;-86
2023/12/22 00:46:35;;;;;;;1.05;0.50;;;;;;;10.84;57.63;94076.50;6217255;23;20008;-86
2023/12/22 00:49:03;;;;;;;1.05;0.50;;;;;;;10.86;57.18;94079.72;6216992;23;20004;-87
2023/12/22 00:51:28;;;;;;;1.75;0.55;;;;;;;10.78;57.30;94063.56;6168598;23;20008;-86
2023/12/22 00:56:19;;;;;;;2.27;0.60;;;;;;;10.78;57.28;94053.94;6238962;23;20058;-86
2023/12/22 00:58:44;;;;;;;3.20;0.88;;;;;;;10.83;57.34;94074.91;6216411;23;20229;-86
2023/12/22 01:01:10;;;;;;;1.60;0.50;;;;;;;10.73;58.02;94072.75;6192469;23;20004;-86
2023/12/22 01:03:35;;;;;;;2.35;0.50;;;;;;;10.86;57.99;94074.50;6192308;23;20020;-86
2023/12/22 01:06:01;;;;;;;1.83;0.50;;;;;;;10.55;59.10;94089.03;6192463;23;20069;-85
2023/12/22 01:08:26;;;;;;;2.88;0.65;;;;;;;10.66;59.42;94102.38;6192689;23;20075;-85
2023/12/22 01:10:52;;;;;;;1.88;0.77;;;;;;;10.67;59.50;94127.41;6217152;23;20066;-85
2023/12/22 01:13:18;;;;;;;1.30;0.52;;;;;;;10.58;60.05;94142.41;6217460;23;19996;-86
2023/12/22 01:15:44;;;;;;;1.65;0.50;;;;;;;10.43;60.79;94157.44;6215665;23;20026;-85
2023/12/22 01:18:10;;;;;;;1.63;0.50;;;;;;;10.22;61.43;94161.03;6193897;23;20069;-86
2023/12/22 01:20:36;;;;;;;1.13;0.52;;;;;;;10.26;61.12;94170.03;6219256;23;20047;-85
2023/12/22 01:23:04;;;;;;;2.22;0.60;;;;;;;10.40;61.22;94178.66;6194423;23;20004;-86
2023/12/22 01:25:29;;;;;;;2.88;0.50;;;;;;;10.37;61.07;94162.44;6194008;23;20012;-86
2023/12/22 01:27:55;;;;;;;2.28;0.45;;;;;;;10.42;60.98;94156.66;6219030;23;20064;-86
2023/12/22 01:30:20;;;;;;;2.08;0.60;;;;;;;10.43;60.82;94160.84;6193679;23;20012;-85
2023/12/22 01:32:46;;;;;;;1.73;0.47;;;;;;;10.51;60.56;94168.44;6217266;23;20053;-85
2023/12/22 01:35:11;;;;;;;1.42;0.40;;;;;;;10.42;60.78;94158.47;6193913;23;20019;-86
2023/12/22 01:37:37;;;;;;;0.90;0.45;;;;;;;10.46;60.72;94159.66;6193505;23;20007;-86
2023/12/22 01:40:05;;;;;;;2.47;0.50;;;;;;;10.43;60.34;94155.63;6193529;23;20043;-86
2023/12/22 01:42:31;;;;;;;1.13;0.50;;;;;;;10.40;60.67;94143.06;6217443;23;20095;-86
2023/12/22 01:44:56;;;;;;;1.08;0.38;;;;;;;10.29;61.09;94136.63;6191787;23;20038;-85
2023/12/22 01:49:48;;;;;;;1.15;0.47;;;;;;;10.49;60.13;94141.84;6240679;23;20055;-86
2023/12/22 01:52:14;;;;;;;1.35;0.47;;;;;;;10.57;60.22;94149.41;6193747;23;20016;-86
2023/12/22 01:54:39;;;;;;;1.70;0.40;;;;;;;10.58;60.14;94155.41;6193455;23;20012;-86
2023/12/22 01:57:06;;;;;;;0.73;0.40;;;;;;;10.43;60.41;94145.22;6193753;23;20087;-86
2023/12/22 02:01:58;;;;;;;0.50;0.40;;;;;;;10.45;60.62;94140.66;6209858;23;20004;-86
2023/12/22 02:04:25;;;;;;;3.50;0.40;;;;;;;10.22;60.93;94127.25;6193861;23;20015;-86
2023/12/22 02:06:51;;;;;;;1.02;0.40;;;;;;;10.05;61.81;94135.47;6193093;23;20000;-86
2023/12/22 02:09:16;;;;;;;2.83;0.60;;;;;;;10.34;60.87;94136.88;6218610;23;20008;-86
2023/12/22 02:11:42;;;;;;;3.55;0.60;;;;;;;10.41;61.07;94157.63;6193234;23;20012;-85
2023/12/22 02:14:07;;;;;;;1.70;0.60;;;;;;;10.55;60.68;94158.44;6193582;23;20008;-85
2023/12/22 02:16:46;;;;;;;2.75;0.60;;;;;;;10.47;60.99;94151.66;6218008;23;20060;-86
2023/12/22 02:19:45;;;;;;;1.63;0.55;;;;;;;10.27;61.14;94161.25;6216056;23;20011;-86
2023/12/22 02:22:12;;;;;;;2.20;0.70;;;;;;;10.27;61.25;94158.63;6204941;23;20008;-85
2023/12/22 02:24:39;;;;;;;2.05;0.60;;;;;;;10.13;61.56;94150.84;6218263;23;20004;-86
2023/12/22 02:27:25;;;;;;;2.28;0.70;;;;;;;9.98;61.20;94155.44;6239567;22;20012;-85
2023/12/22 02:30:05;;;;;;;2.78;0.85;;;;;;;10.38;60.00;94152.88;6217897;23;20016;-86
2023/12/22 02:32:36;;;;;;;1.40;0.50;;;;;;;10.46;59.79;94154.44;6218355;23;20028;-86
2023/12/22 02:35:09;;;;;;;3.50;0.80;;;;;;;10.46;60.06;94142.25;6218051;23;20018;-86
2023/12/22 02:40:02;;;;;;;1.48;0.50;;;;;;;10.56;59.39;94147.81;6236897;23;20032;-86
2023/12/22 02:42:30;;;;;;;3.67;0.75;;;;;;;10.52;60.05;94135.44;6192810;23;20074;-85
2023/12/22 02:44:59;;;;;;;1.85;0.65;;;;;;;10.24;60.38;94138.25;6217267;23;20071;-86
2023/12/22 02:47:27;;;;;;;2.83;0.70;;;;;;;10.26;60.11;94124.06;6192705;23;20023;-86
2023/12/22 02:49:53;;;;;;;2.28;0.90;;;;;;;10.24;60.25;94128.63;6168741;23;20004;-86
2023/12/22 02:52:22;;;;;;;2.65;0.88;;;;;;;10.20;60.80;94127.44;6193293;23;20015;-86
2023/12/22 02:54:47;;;;;;;2.05;0.70;;;;;;;10.26;60.67;94125.84;6193266;23;20035;-85
2023/12/22 02:57:13;;;;;;;2.05;0.68;;;;;;;10.46;60.16;94136.25;6193181;23;20012;-86
2023/12/22 02:59:42;;;;;;;1.65;0.60;;;;;;;10.35;60.52;94127.25;6193186;23;20022;-86
2023/12/22 03:02:07;;;;;;;1.83;0.70;;;;;;;10.55;59.96;94133.22;6218255;23;20054;-86
2023/12/22 03:04:32;;;;;;;4.40;0.95;;;;;;;10.28;60.87;94129.84;6193165;23;20004;-86
2023/12/22 03:09:23;;;;;;;2.67;0.90;;;;;;;10.16;61.52;94115.88;6212527;23;20082;-86
2023/12/22 03:11:54;;;;;;;5.72;0.90;;;;;;;10.24;61.41;94126.03;6192519;23;20015;-85
2023/12/22 03:14:20;;;;;;;3.42;0.90;;;;;;;10.15;61.69;94129.88;6193086;23;20097;-85
2023/12/22 03:16:45;;;;;;;3.70;0.90;;;;;;;9.97;61.66;94127.88;6217562;23;20000;-86
2023/12/22 03:21:36;;;;;;;3.42;0.88;;;;;;;10.08;61.03;94127.25;6216554;23;20062;-85
2023/12/22 03:24:01;;;;;;;3.92;0.77;;;;;;;10.02;61.57;94124.69;6168322;23;20012;-86
2023/12/22 03:26:28;;;;;;;4.40;0.90;;;;;;;10.04;61.81;94140.88;6167425;23;20004;-85
2023/12/22 03:28:53;;;;;;;2.72;0.77;;;;;;;10.23;61.14;94139.25;6217574;23;20008;-86
2023/12/22 03:31:18;;;;;;;4.00;0.90;;;;;;;10.22;61.14;94135.84;6192288;23;20016;-85
2023/12/22 03:33:45;;;;;;;2.63;0.90;;;;;;;9.95;62.00;94148.03;6191537;23;20019;-85
2023/12/22 03:36:11;;;;;;;1.80;0.60;;;;;;;10.02;61.35;94145.47;6191745;23;20012;-85
2023/12/22 03:38:39;;;;;;;3.65;0.90;;;;;;;10.01;61.24;94146.44;6217797;23;20057;-86
2023/12/22 03:41:04;;;;;;;2.97;0.70;;;;;;;10.04;61.34;94152.06;6192381;23;20090;-86
2023/12/22 03:46:05;;;;;;;3.83;0.90;;;;;;;9.78;62.17;94156.22;6153641;23;20025;-86
2023/12/22 03:48:31;;;;;;;1.52;0.80;;;;;;;9.65;62.51;94163.19;6103619;23;20002;-86
2023/12/22 03:50:56;;;;;;;3.30;0.80;;;;;;;9.84;61.76;94174.63;6079234;23;20014;-86
2023/12/22 03:53:31;;;;;;;;;;;;;;;;;;;;;
2023/12/22 03:55:47;;;;;;;3.10;0.70;;;;;;;9.90;61.77;94173.81;6235641;22;20030;-86
2023/12/22 03:58:12;;;;;;;1.55;0.70;;;;;;;9.84;61.61;94170.22;6217334;23;20008;-86
2023/12/22 04:00:41;;;;;;;3.75;0.88;;;;;;;10.06;60.77;94181.22;6217232;23;20012;-86
2023/12/22 04:03:07;;;;;;;3.75;0.73;;;;;;;10.05;60.61;94171.03;6193100;23;20004;-85
2023/12/22 04:05:32;;;;;;;1.95;0.70;;;;;;;9.88;61.22;94176.63;6217192;23;20015;-86
2023/12/22 04:07:57;;;;;;;2.80;0.75;;;;;;;9.97;60.62;94188.41;6217479;23;20012;-85
2023/12/22 04:10:27;;;;;;;3.75;1.02;;;;;;;10.00;60.13;94174.22;6192605;23;20015;-86
2023/12/22 04:12:52;;;;;;;4.10;1.00;;;;;;;9.99;59.71;94159.63;6217770;23;20012;-86
2023/12/22 04:15:18;;;;;;;3.83;0.80;;;;;;;9.93;60.31;94171.63;6221595;22;20089;-86
2023/12/22 04:17:43;;;;;;;2.42;1.00;;;;;;;10.02;59.14;94177.44;6217584;23;20078;-86
2023/12/22 04:20:13;;;;;;;3.47;1.00;;;;;;;10.06;59.46;94183.03;6192371;23;20012;-86
2023/12/22 04:22:38;;;;;;;3.55;0.88;;;;;;;10.03;59.40;94186.81;6242576;23;20035;-86
2023/12/22 04:27:39;;;;;;;2.97;0.68;;;;;;;9.99;59.89;94193.41;6262595;22;20035;-86
2023/12/22 04:30:05;;;;;;;3.40;0.65;;;;;;;9.88;59.62;94187.03;6248011;22;20015;-86
2023/12/22 04:32:31;;;;;;;3.90;1.02;;;;;;;9.95;60.11;94197.41;6247925;22;20026;-86
2023/12/22 04:34:56;;;;;;;2.90;0.73;;;;;;;9.91;60.35;94193.59;6197593;22;20015;-86
2023/12/22 04:37:22;;;;;;;3.05;0.80;;;;;;;9.87;60.77;94195.00;6222710;22;20002;-87
2023/12/22 04:39:49;;;;;;;1.92;0.82;;;;;;;9.94;60.31;94193.22;6197552;22;20007;-85
2023/12/22 04:42:15;;;;;;;1.95;0.60;;;;;;;9.89;60.23;94208.59;6247441;22;20012;-86
2023/12/22 04:44:40;;;;;;;1.75;0.70;;;;;;;9.83;61.07;94222.38;6197518;22;20014;-86
2023/12/22 04:47:08;;;;;;;2.10;0.65;;;;;;;9.95;60.97;94229.38;6222340;22;20004;-86
2023/12/22 04:49:34;;;;;;;2.35;0.60;;;;;;;9.70;61.13;94234.31;6247605;22;20082;-85
2023/12/22 04:51:59;;;;;;;2.55;0.63;;;;;;;9.68;61.47;94230.31;6222899;22;20027;-86
2023/12/22 04:54:24;;;;;;;0.93;0.60;;;;;;;9.60;61.86;94246.88;6223869;22;20069;-85
2023/12/22 04:56:50;;;;;;;2.70;0.60;;;;;;;9.46;61.74;94251.22;6223052;22;20003;-86
2023/12/22 04:59:18;;;;;;;2.15;0.50;;;;;;;9.34;62.76;94269.13;6223081;22;20011;-86
2023/12/22 05:04:09;;;;;;;2.38;0.77;;;;;;;9.48;61.47;94275.19;6254460;22;20015;-86
2023/12/22 05:06:38;;;;;;;3.22;0.73;;;;;;;9.22;61.99;94275.88;6224940;22;20004;-86
2023/12/22 05:09:04;;;;;;;3.30;0.80;;;;;;;9.37;60.89;94270.56;6199352;22;20315;-85
2023/12/22 05:11:29;;;;;;;3.78;0.80;;;;;;;9.45;60.88;94287.75;6249625;22;20086;-86
2023/12/22 05:16:22;;;;;;;5.40;1.00;;;;;;;9.49;58.73;94307.13;6234570;22;20093;-85
2023/12/22 05:18:48;;;;;;;3.35;1.00;;;;;;;9.39;60.30;94303.09;6194387;23;20015;-85
2023/12/22 05:21:16;;;;;;;2.30;0.70;;;;;;;9.26;60.07;94292.66;6194095;23;20001;-86
2023/12/22 05:26:08;;;;;;;4.80;0.90;;;;;;;9.56;59.11;94290.59;6245859;22;20024;-85
2023/12/22 05:28:33;;;;;;;4.15;0.90;;;;;;;9.44;59.79;94279.16;6224083;22;20031;-85
2023/12/22 05:31:01;;;;;;;5.18;1.08;;;;;;;9.43;59.77;94287.16;6224082;22;20013;-86
2023/12/22 05:33:26;;;;;;;4.60;0.93;;;;;;;9.53;59.25;94285.78;6224443;22;20012;-86
2023/12/22 05:35:52;;;;;;;4.90;1.00;;;;;;;9.49;59.79;94292.34;6224172;22;20007;-86
2023/12/22 05:46:03;;;;;;;6.72;1.00;;;;;;;9.39;60.45;94308.28;6233260;23;20031;-87
2023/12/22 05:48:31;;;;;;;3.35;0.98;;;;;;;9.37;60.06;94281.72;6193363;23;20008;-85
2023/12/22 05:51:02;;;;;;;4.03;0.90;;;;;;;9.46;59.98;94291.94;6194128;23;20015;-87
2023/12/22 05:53:27;;;;;;;4.35;0.98;;;;;;;9.48;60.25;94285.59;6194684;23;20079;-86
2023/12/22 05:55:53;;;;;;;4.40;1.00;;;;;;;9.43;60.74;94289.75;6193717;23;20155;-86
2023/12/22 05:58:18;;;;;;;4.57;1.02;;;;;;;9.45;60.60;94300.75;6218399;22;20022;-86
2023/12/22 06:00:46;;;;;;;4.50;1.10;;;;;;;9.32;60.73;94291.88;6197682;22;20073;-87
2023/12/22 06:03:14;;;;;;;4.75;1.15;;;;;;;9.58;59.67;94308.59;6198358;22;20042;-85
2023/12/22 06:05:39;;;;;;;4.80;1.00;;;;;;;9.58;59.80;94308.59;6223920;22;20003;-86
2023/12/22 06:08:05;;;;;;;5.95;1.10;;;;;;;9.72;59.16;94323.19;6223681;22;20018;-86
2023/12/22 06:10:30;;;;;;;3.35;0.90;;;;;;;9.61;59.49;94309.97;6241596;23;20078;-86
2023/12/22 06:13:03;;;;;;;5.35;1.23;;;;;;;9.64;59.49;94318.19;6193144;23;20004;-86
2023/12/22 06:15:28;;;;;;;3.92;1.20;;;;;;;9.68;59.29;94311.59;6194521;23;20004;-86
2023/12/22 06:17:54;;;;;;;4.50;1.05;;;;;;;9.59;59.95;94329.16;6218109;23;19996;-86
2023/12/22 06:20:19;;;;;;;6.25;1.17;;;;;;;9.40;60.19;94335.03;6168508;23;20012;-86
2023/12/22 06:22:46;;;;;;;2.90;1.00;;;;;;;9.73;59.11;94344.78;6193449;23;20008;-86
2023/12/22 06:25:13;;;;;;;4.97;1.10;;;;;;;9.72;58.45;94332.78;6218313;23;20004;-87
2023/12/22 06:27:39;;;;;;;4.38;1.00;;;;;;;9.87;58.10;94361.22;6193405;23;20014;-87
2023/12/22 06:35:09;;;;;;;7.90;1.45;;;;;;;9.63;58.99;94341.75;6214093;23;20016;-86
2023/12/22 06:37:35;;;;;;;5.57;1.00;;;;;;;9.63;58.36;94339.94;6164137;23;20080;-86
2023/12/22 06:40:00;;;;;;;4.47;1.02;;;;;;;9.56;58.78;94328.75;6163416;23;20046;-86
2023/12/22 06:42:26;;;;;;;5.30;1.20;;;;;;;9.61;58.68;94331.53;6188442;23;20039;-86
2023/12/22 06:44:51;;;;;;;5.65;1.20;;;;;;;9.67;58.77;94359.34;6163072;23;20032;-87
2023/12/22 06:49:42;;;;;;;4.07;1.10;;;;;;;9.88;57.69;94349.81;6243376;23;20020;-86
2023/12/22 06:52:07;;;;;;;5.43;1.27;;;;;;;9.75;58.07;94345.41;6217925;23;20008;-86
2023/12/22 06:54:34;;;;;;;5.70;1.25;;;;;;;9.81;58.30;94352.41;6218396;23;20004;-88
2023/12/22 06:57:00;;;;;;;5.65;1.13;;;;;;;9.93;57.75;94363.03;6168023;23;20003;-87
2023/12/22 06:59:25;;;;;;;5.32;1.20;;;;;;;9.90;57.33;94347.84;6192276;23;20032;-87
2023/12/22 07:01:51;;;;;;;4.45;1.00;;;;;;;9.93;57.45;94342.25;6193109;23;20054;-86
2023/12/22 07:04:16;;;;;;;6.13;1.10;;;;;;;9.88;57.53;94326.44;6192985;23;20008;-86
2023/12/22 07:06:42;;;;;;;5.03;1.08;;;;;;;10.07;57.02;94336.13;6193764;23;20004;-86
2023/12/22 07:09:13;;;;;;;7.53;1.10;;;;;;;10.04;56.65;94341.69;6192703;23;20008;-86
2023/12/22 07:11:44;;;;;;;4.20;0.93;;;;;;;9.86;57.64;94355.25;6216171;23;20057;-86
2023/12/22 07:14:09;;;;;;;4.03;1.10;;;;;;;9.68;57.25;94347.97;6216848;23;20011;-87
2023/12/22 07:16:36;;;;;;;7.68;1.38;;;;;;;9.71;57.69;94351.94;6191859;23;20008;-86
2023/12/22 07:19:02;;;;;;;3.92;1.30;;;;;;;9.70;57.63;94345.97;6192523;23;20008;-87
2023/12/22 07:24:03;;;;;;;4.93;1.15;;;;;;;9.79;57.31;94378.56;6243683;22;20023;-87
2023/12/22 07:26:28;;;;;;;5.18;1.60;;;;;;;9.93;56.75;94379.41;6193338;23;20000;-87
2023/12/22 07:28:54;;;;;;;3.90;1.35;;;;;;;9.99;56.62;94375.25;6193307;23;20014;-86
2023/12/22 07:31:20;;;;;;;4.40;1.08;;;;;;;9.96;55.81;94381.66;6193015;23;20094;-86
2023/12/22 07:33:45;;;;;;;5.38;1.17;;;;;;;9.97;55.37;94388.44;6167841;23;20008;-86
2023/12/22 07:36:11;;;;;;;5.43;1.15;;;;;;;9.80;56.26;94376.78;6218157;23;20015;-86
2023/12/22 07:38:39;;;;;;;4.00;1.00;;;;;;;9.92;56.18;94384.84;6216419;23;20024;-86
2023/12/22 07:41:04;;;;;;;3.38;0.88;;;;;;;10.03;56.01;94388.66;6217744;23;20079;-86
2023/12/22 07:43:30;;;;;;;4.28;1.38;;;;;;;9.72;56.81;94379.53;6192672;23;20105;-86
2023/12/22 07:45:55;;;;;;;4.35;1.00;;;;;;;9.85;56.81;94387.38;6192625;23;20012;-85
2023/12/22 07:48:21;;;;;;;2.92;0.90;;;;;;;9.70;57.81;94384.13;6192743;23;20008;-86
2023/12/22 07:50:47;;;;;;;3.53;0.82;;;;;;;9.62;58.65;94399.88;6217723;23;20008;-88
2023/12/22 07:53:15;;;;;;;2.97;0.95;;;;;;;9.74;58.24;94406.91;6192647;23;20016;-86
2023/12/22 07:55:41;;;;;;;2.25;0.80;;;;;;;9.66;58.97;94420.06;6217483;23;20004;-88
2023/12/22 07:58:07;;;;;;;3.25;0.90;;;;;;;9.65;59.23;94428.81;6208878;23;20078;-86
2023/12/22 08:00:32;;;;;;;6.97;0.90;;;;;;;9.41;60.00;94434.47;6192209;23;20084;-85
2023/12/22 08:02:58;;;;;;;2.42;0.52;;;;;;;9.42;60.25;94428.28;6192722;23;20012;-85
2023/12/22 08:05:23;;;;;;;3.75;0.80;;;;;;;9.38;60.48;94438.25;6192267;23;20014;-86
2023/12/22 08:10:14;;;;;;;2.95;0.70;;;;;;;9.33;61.42;94451.00;6222219;22;20030;-85
2023/12/22 08:12:42;;;;;;;4.80;1.00;;;;;;;9.12;62.41;94457.81;6192112;23;20020;-86
2023/12/22 08:15:10;;;;;;;1.73;0.85;;;;;;;9.12;62.44;94470.78;6192186;23;20016;-86
2023/12/22 08:17:36;;;;;;;2.25;0.70;;;;;;;9.02;62.81;94475.47;6217873;23;19996;-86
2023/12/22 08:22:27;;;;;;;2.92;0.90;;;;;;;9.26;61.98;94476.09;6241944;23;20020;-85
2023/12/22 08:24:54;;;;;;;5.10;1.10;;;;;;;9.46;61.37;94468.44;6192519;23;20011;-86
2023/12/22 08:27:20;;;;;;;3.47;0.93;;;;;;;9.66;60.71;94469.38;6193383;23;20012;-86
2023/12/22 08:29:45;;;;;;;4.95;0.88;;;;;;;9.58;60.06;94453.97;6194899;23;20010;-86
2023/12/22 08:32:11;;;;;;;2.38;0.88;;;;;;;9.48;60.79;94456.91;6194365;23;20019;-86
2023/12/22 08:34:36;;;;;;;3.50;1.00;;;;;;;9.41;61.01;94452.66;6194411;23;20008;-85
2023/12/22 08:37:02;;;;;;;2.30;0.85;;;;;;;9.51;60.48;94461.69;6194665;23;20061;-86
2023/12/22 08:39:27;;;;;;;4.10;0.90;;;;;;;9.43;60.38;94453.25;6194154;23;20008;-86
2023/12/22 08:41:53;;;;;;;4.40;0.80;;;;;;;9.53;59.83;94448.53;6194973;23;20016;-86
2023/12/22 08:44:18;;;;;;;4.90;1.00;;;;;;;9.42;59.87;94439.47;6219622;23;20004;-86
2023/12/22 08:46:44;;;;;;;4.53;0.88;;;;;;;9.48;60.18;94464.69;6194264;23;20015;-86
2023/12/22 08:49:13;;;;;;;5.18;1.20;;;;;;;9.29;60.61;94468.75;6195584;23;20023;-86
2023/12/22 08:51:38;;;;;;;5.95;1.13;;;;;;;9.53;59.60;94464.09;6194485;23;20073;-85
2023/12/22 08:54:04;;;;;;;4.47;1.27;;;;;;;9.51;59.70;94459.09;6194717;23;20020;-86
2023/12/22 08:59:08;;;;;;;5.53;1.00;;;;;;;9.50;59.47;94454.91;6244280;23;20024;-86
2023/12/22 09:01:34;;;;;;;6.53;1.10;;;;;;;9.48;60.13;94464.69;6193619;23;20008;-85
2023/12/22 09:04:03;;;;;;;7.10;1.27;;;;;;;9.45;59.86;94457.25;6219047;23;20028;-86
2023/12/22 09:06:28;;;;;;;6.43;1.20;;;;;;;9.31;60.70;94456.38;6193961;23;20000;-86
2023/12/22 09:08:54;;;;;;;3.67;1.10;;;;;;;9.35;60.01;94465.38;6212943;23;20038;-86
2023/12/22 09:11:20;;;;;;;5.65;1.10;;;;;;;9.37;59.85;94475.59;6193376;23;20038;-85
2023/12/22 09:13:46;;;;;;;5.82;1.45;;;;;;;9.45;60.48;94478.03;6169549;23;20015;-85
2023/12/22 09:16:15;;;;;;;3.65;1.25;;;;;;;9.48;60.68;94489.81;6194064;23;20091;-86
2023/12/22 09:18:44;;;;;;;6.70;1.25;;;;;;;9.15;61.37;94500.75;6219131;23;20004;-86
2023/12/22 09:21:10;;;;;;;6.22;1.02;;;;;;;9.30;61.04;94485.91;6219620;23;20078;-86
2023/12/22 09:23:35;;;;;;;5.65;1.25;;;;;;;9.13;61.81;94487.16;6193327;23;20012;-85
2023/12/22 09:28:26;;;;;;;5.78;1.13;;;;;;;9.09;61.82;94514.47;6215783;23;20024;-86
2023/12/22 09:30:55;;;;;;;5.22;0.80;;;;;;;8.76;62.77;94505.34;6193498;23;20019;-86
2023/12/22 09:33:22;;;;;;;3.50;0.80;;;;;;;8.96;62.55;94510.72;6194337;23;20000;-86
2023/12/22 09:35:48;;;;;;;5.03;0.80;;;;;;;8.97;62.19;94512.34;6170191;23;20016;-86
2023/12/22 09:38:13;;;;;;;5.15;1.23;;;;;;;8.94;62.76;94536.06;6193604;23;20008;-85
2023/12/22 09:40:41;;;;;;;5.15;0.98;;;;;;;9.04;63.06;94527.16;6218317;23;20004;-85
2023/12/22 09:43:14;;;;;;;3.08;0.70;;;;;;;9.09;62.21;94520.44;6217903;23;20008;-85
2023/12/22 09:50:42;;;;;;;2.00;0.70;;;;;;;9.18;61.93;94539.28;6213650;23;20023;-86
2023/12/22 09:53:09;;;;;;;3.83;0.70;;;;;;;8.98;62.72;94545.06;6212668;23;20044;-85
2023/12/22 09:55:38;;;;;;;3.13;0.70;;;;;;;9.10;62.12;94523.84;6163533;23;20012;-85
2023/12/22 09:58:05;;;;;;;4.13;0.80;;;;;;;9.15;62.35;94531.88;6189348;23;20058;-85
2023/12/22 10:02:55;;;;;;;1.87;0.73;;;;;;;9.26;61.13;94540.97;6243534;22;20027;-85
2023/12/22 10:05:22;;;;;;;2.13;0.50;;;;;;;8.90;61.84;94523.66;6218283;23;20237;-85
2023/12/22 10:07:49;;;;;;;3.00;0.70;;;;;;;9.23;61.27;94536.94;6194020;23;20008;-86
2023/12/22 10:10:19;;;;;;;2.42;0.52;;;;;;;9.05;61.77;94519.22;6193486;23;20015;-85
2023/12/22 10:12:46;;;;;;;3.33;0.68;;;;;;;9.24;60.82;94533.34;6193581;23;20008;-85
2023/12/22 10:15:16;;;;;;;2.15;0.57;;;;;;;9.36;61.04;94524.06;6193629;23;20186;-86
2023/12/22 10:17:42;;;;;;;2.25;0.50;;;;;;;9.43;60.71;94526.72;6193349;23;20015;-86
2023/12/22 10:20:08;;;;;;;1.77;0.60;;;;;;;9.28;61.62;94538.97;6192393;23;20016;-85
2023/12/22 10:22:34;;;;;;;1.80;0.60;;;;;;;9.53;60.62;94534.19;6193111;23;20012;-85
2023/12/22 10:24:59;;;;;;;1.77;0.47;;;;;;;9.32;60.68;94548.78;6193660;23;20058;-86
2023/12/22 10:27:25;;;;;;;2.13;0.70;;;;;;;9.51;60.25;94533.59;6218647;23;20038;-86
2023/12/22 10:29:59;;;;;;;1.45;0.50;;;;;;;9.49;60.03;94545.94;6218016;23;20085;-85
2023/12/22 10:32:26;;;;;;;2.63;0.70;;;;;;;9.45;60.69;94527.34;6168362;23;20012;-86
2023/12/22 10:34:52;;;;;;;3.65;0.90;;;;;;;9.60;60.01;94522.06;6193146;23;20011;-85
2023/12/22 10:37:18;;;;;;;2.15;0.52;;;;;;;9.63;60.51;94532.06;6217056;23;19996;-84
2023/12/22 10:39:48;;;;;;;2.75;0.80;;;;;;;9.55;60.40;94512.25;6166967;23;20008;-86
2023/12/22 10:42:14;;;;;;;3.17;0.60;;;;;;;9.71;59.80;94508.56;6192384;23;20023;-86
2023/12/22 10:44:41;;;;;;;2.17;0.73;;;;;;;9.81;59.41;94510.03;6216285;23;20004;-86
2023/12/22 10:47:09;;;;;;;3.25;0.70;;;;;;;9.87;59.15;94504.09;6216839;23;20075;-86
2023/12/22 10:52:00;;;;;;;5.83;1.10;;;;;;;9.69;59.86;94494.97;6233979;22;20086;-86
2023/12/22 10:54:25;;;;;;;4.43;1.00;;;;;;;9.58;60.24;94487.72;6193253;23;20226;-85
2023/12/22 10:56:52;;;;;;;3.83;0.90;;;;;;;9.76;60.38;94497.59;6192932;23;20007;-86
2023/12/22 10:59:23;;;;;;;3.88;1.08;;;;;;;9.56;60.27;94481.91;6217529;23;20010;-86
2023/12/22 11:01:52;;;;;;;5.70;1.00;;;;;;;9.83;60.06;94489.88;6191286;23;20115;-86
2023/12/22 11:04:20;;;;;;;2.63;1.10;;;;;;;9.77;59.42;94487.03;6218243;23;20016;-86
2023/12/22 11:09:25;;;;;;;5.80;1.10;;;;;;;9.62;59.81;94455.19;6239363;22;20051;-86
2023/12/22 11:11:51;;;;;;;3.97;1.20;;;;;;;9.67;60.03;94447.63;6217731;23;20008;-86
2023/12/22 11:14:17;;;;;;;5.95;1.20;;;;;;;9.81;59.96;94450.31;6167669;23;20000;-86
2023/12/22 11:16:48;;;;;;;2.78;1.00;;;;;;;9.86;59.47;94459.13;6193020;23;20012;-86
2023/12/22 11:19:14;;;;;;;6.68;1.20;;;;;;;9.95;59.41;94441.56;6193791;23;20015;-86
2023/12/22 11:21:42;;;;;;;5.28;1.08;;;;;;;9.98;59.35;94451.59;6218336;23;20012;-86
2023/12/22 11:24:08;;;;;;;4.57;1.23;;;;;;;10.02;59.14;94436.44;6217970;23;20078;-85
2023/12/22 11:26:35;;;;;;;9.90;1.42;;;;;;;10.10;59.01;94438.84;6192637;23;20008;-85
2023/12/22 11:29:02;;;;;;;4.30;1.50;;;;;;;9.92;59.70;94408.22;6217466;23;20007;-86
2023/12/22 11:31:31;;;;;;;7.40;1.17;;;;;;;10.03;58.81;94407.63;6217619;23;20009;-86
2023/12/22 11:33:59;;;;;;;6.00;1.23;;;;;;;9.91;59.66;94398.81;6193005;23;20058;-85
2023/12/22 11:36:25;;;;;;;4.05;0.95;;;;;;;9.99;59.43;94390.84;6217090;23;20087;-85
2023/12/22 11:38:53;;;;;;;6.00;1.30;;;;;;;10.16;58.46;94397.28;6193449;23;20073;-86
2023/12/22 11:41:27;;;;;;;5.00;1.05;;;;;;;10.17;58.99;94398.09;6193482;23;20110;-86
2023/12/22 11:43:54;;;;;;;4.05;0.90;;;;;;;9.98;59.34;94397.84;6216499;23;20000;-86
2023/12/22 11:46:20;;;;;;;6.00;1.13;;;;;;;9.98;59.43;94389.25;6216356;23;20019;-85
2023/12/22 11:48:49;;;;;;;4.80;1.00;;;;;;;9.77;59.62;94393.53;6191270;23;20004;-85
2023/12/22 11:51:16;;;;;;;2.95;1.10;;;;;;;9.70;60.44;94381.53;6191922;23;20019;-85
2023/12/22 11:53:42;;;;;;;3.70;0.95;;;;;;;9.69;60.97;94372.13;6216647;23;20008;-85
2023/12/22 11:56:09;;;;;;;3.38;1.00;;;;;;;9.68;60.94;94373.91;6216417;23;20004;-85
2023/12/22 11:58:52;;;;;;;4.28;0.85;;;;;;;9.86;59.69;94364.81;6216108;23;20015;-85
2023/12/22 12:01:19;;;;;;;5.50;0.90;;;;;;;9.71;59.98;94367.53;6216208;23;20024;-85
2023/12/22 12:03:52;;;;;;;3.83;0.80;;;;;;;9.74;59.71;94361.97;6217047;23;20011;-85
2023/12/22 12:06:38;;;;;;;4.00;0.95;;;;;;;9.62;60.74;94353.94;6216658;23;20098;-85
2023/12/22 12:09:05;;;;;;;5.07;1.00;;;;;;;9.56;60.82;94354.69;6216095;23;20077;-85
2023/12/22 12:11:54;;;;;;;4.32;1.17;;;;;;;9.57;60.88;94345.91;6216829;23;20007;-86
2023/12/22 12:14:23;;;;;;;5.10;0.90;;;;;;;9.76;60.50;94352.19;6217111;23;20011;-85
2023/12/22 12:16:48;;;;;;;2.90;0.80;;;;;;;9.70;60.60;94337.38;6217489;23;20033;-85
2023/12/22 12:19:15;;;;;;;2.55;1.00;;;;;;;9.72;59.92;94332.78;6167358;23;20087;-85
2023/12/22 12:21:41;;;;;;;4.50;0.90;;;;;;;9.84;60.05;94343.41;6192184;23;20095;-85
2023/12/22 12:24:06;;;;;;;2.38;0.80;;;;;;;9.73;60.65;94345.59;6192596;23;20039;-85
2023/12/22 12:26:35;;;;;;;3.80;0.88;;;;;;;9.78;60.37;94345.00;6192128;23;20042;-85
2023/12/22 12:29:01;;;;;;;4.15;0.82;;;;;;;9.88;60.20;94324.69;6217249;23;20004;-85
2023/12/22 12:31:41;;;;;;;2.75;0.80;;;;;;;9.76;60.37;94328.81;6192437;23;20004;-85
2023/12/22 12:34:08;;;;;;;3.83;0.80;;;;;;;9.61;60.76;94326.34;6193448;23;20011;-85
2023/12/22 12:36:33;;;;;;;3.70;0.82;;;;;;;9.69;61.02;94333.16;6167449;23;20229;-85
2023/12/22 12:39:14;;;;;;;3.38;0.80;;;;;;;9.51;61.45;94328.50;6216771;23;20004;-85
2023/12/22 12:41:43;;;;;;;5.10;1.27;;;;;;;9.77;61.41;94331.22;6243060;23;20004;-85
2023/12/22 12:44:10;;;;;;;2.28;0.90;;;;;;;9.85;60.74;94326.84;6192021;23;20020;-85
2023/12/22 12:46:43;;;;;;;4.07;0.63;;;;;;;9.87;61.00;94325.66;6191649;23;20015;-85
2023/12/22 12:49:11;;;;;;;1.77;0.75;;;;;;;10.01;60.19;94329.09;6216845;23;20008;-85
2023/12/22 12:51:47;;;;;;;2.15;0.70;;;;;;;9.85;61.03;94326.84;6215695;23;20015;-85
2023/12/22 12:54:14;;;;;;;4.07;0.80;;;;;;;9.74;61.31;94325.59;6215776;23;20073;-85
2023/12/22 12:56:44;;;;;;;2.55;0.70;;;;;;;9.94;60.98;94330.88;6191765;23;20034;-85